Back to Top

Language: 

My Weather Underground Personal Weather Station Historical Data with Graphs...

Delerius Weather Station Historical Data
Daily Summary for July 26, 2017 Units:  English    Metric   Both
« Previous Day
Next Day »
Daily Weekly Monthly Yearly Custom
  High: Low: Average:
Temperature: 71.4 °F 53.8 °F 61 °F
Dew Point: 65.4 °F 50.4 °F 56.5 °F
Humidity: 96 % 63 % 86 %
Wind Speed: 18.0 mph 0.0 mph 6.1 mph
Wind Gust: 31.0 mph - -
Wind:- - SSW
Pressure: 29.87 in 29.50 in -
Precipitation: 0.11 in    
Historical Graphs
 
 
Tabular Data for July 26, 2017
Time Temperature Dew Point Pressure Wind Wind Speed Wind Gust Humidity Rainfall Rate (Hourly) solar Conditions
00:04 58.6 °F 55.4 °F 29.87 in SE 4.0 mph 8.0 mph 89 % 0.00 in 0 W/m2
00:09 58.6 °F 55.4 °F 29.87 in SE 2.0 mph 8.0 mph 89 % 0.00 in 0 W/m2
00:14 58.5 °F 55.5 °F 29.86 in SE 3.0 mph 8.0 mph 90 % 0.00 in 0 W/m2
00:19 58.5 °F 55.5 °F 29.86 in SE 5.0 mph 8.0 mph 90 % 0.00 in 0 W/m2
00:24 58.3 °F 55.4 °F 29.86 in SE 4.0 mph 8.0 mph 90 % 0.00 in 0 W/m2
00:29 58.1 °F 55.2 °F 29.86 in SE 4.0 mph 7.0 mph 90 % 0.00 in 0 W/m2
00:34 58.1 °F 55.5 °F 29.85 in SE 4.0 mph 7.0 mph 91 % 0.00 in 0 W/m2
00:39 57.9 °F 55.3 °F 29.85 in ESE 3.0 mph 6.0 mph 91 % 0.00 in 0 W/m2
00:44 57.9 °F 55.3 °F 29.85 in ESE 3.0 mph 6.0 mph 91 % 0.00 in 0 W/m2
00:49 57.7 °F 54.8 °F 29.85 in ESE 2.0 mph 7.0 mph 90 % 0.00 in 0 W/m2
00:54 57.7 °F 54.8 °F 29.84 in ESE 2.0 mph 7.0 mph 90 % 0.00 in 0 W/m2
00:59 57.7 °F 54.8 °F 29.84 in SE 3.0 mph 9.0 mph 90 % 0.00 in 0 W/m2
01:04 57.6 °F 54.6 °F 29.84 in ESE 3.0 mph 9.0 mph 90 % 0.00 in 0 W/m2
01:05 57.6 °F 54.6 °F 29.84 in ESE 3.0 mph 7.0 mph 90 % 0.00 in 0 W/m2
01:10 57.6 °F 54.6 °F 29.84 in ESE 4.0 mph 8.0 mph 90 % 0.00 in 0 W/m2
01:15 57.4 °F 54.8 °F 29.83 in ESE 3.0 mph 8.0 mph 91 % 0.00 in 0 W/m2
01:20 57.4 °F 54.8 °F 29.83 in ESE 2.0 mph 8.0 mph 91 % 0.00 in 0 W/m2
01:25 57.4 °F 54.8 °F 29.83 in SE 2.0 mph 8.0 mph 91 % 0.00 in 0 W/m2
01:30 57.2 °F 54.3 °F 29.83 in SSE 1.0 mph 8.0 mph 90 % 0.00 in 0 W/m2
01:35 57.0 °F 54.1 °F 29.83 in SSE 1.0 mph 8.0 mph 90 % 0.00 in 0 W/m2
01:36 57.0 °F 54.1 °F 29.83 in SSE 1.0 mph 8.0 mph 90 % 0.00 in 0 W/m2
01:41 56.8 °F 54.2 °F 29.83 in SE 1.0 mph 6.0 mph 91 % 0.00 in 0 W/m2
01:46 56.8 °F 54.2 °F 29.83 in SSE 1.0 mph 6.0 mph 91 % 0.00 in 0 W/m2
01:51 56.7 °F 54.1 °F 29.82 in SE 1.0 mph 4.0 mph 91 % 0.00 in 0 W/m2
01:56 56.7 °F 54.1 °F 29.82 in Calm   3.0 mph 91 % 0.00 in 0 W/m2
02:01 56.5 °F 53.9 °F 29.82 in SE 1.0 mph 4.0 mph 91 % 0.00 in 0 W/m2
02:06 56.5 °F 54.2 °F 29.82 in SE 1.0 mph 5.0 mph 92 % 0.00 in 0 W/m2
02:11 56.3 °F 54.0 °F 29.81 in SE 1.0 mph 5.0 mph 92 % 0.00 in 0 W/m2
02:16 56.3 °F 54.0 °F 29.81 in SE 1.0 mph 4.0 mph 92 % 0.00 in 0 W/m2
02:21 56.1 °F 53.8 °F 29.81 in SE 1.0 mph 4.0 mph 92 % 0.00 in 0 W/m2
02:26 56.1 °F 53.8 °F 29.80 in SE 1.0 mph 4.0 mph 92 % 0.00 in 0 W/m2
02:31 56.1 °F 53.8 °F 29.80 in SE 1.0 mph 6.0 mph 92 % 0.00 in 0 W/m2
02:36 55.9 °F 53.6 °F 29.80 in SE 2.0 mph 6.0 mph 92 % 0.00 in 0 W/m2
02:41 55.9 °F 53.9 °F 29.80 in SE 1.0 mph 5.0 mph 93 % 0.00 in 0 W/m2
02:46 55.9 °F 53.9 °F 29.80 in SE 2.0 mph 5.0 mph 93 % 0.00 in 0 W/m2
02:51 55.8 °F 53.8 °F 29.79 in SE 2.0 mph 5.0 mph 93 % 0.00 in 0 W/m2
02:56 55.8 °F 53.8 °F 29.79 in SE 1.0 mph 5.0 mph 93 % 0.00 in 0 W/m2
03:01 55.8 °F 53.8 °F 29.79 in SE 1.0 mph 4.0 mph 93 % 0.00 in 0 W/m2
03:06 55.6 °F 53.6 °F 29.79 in Calm   1.0 mph 93 % 0.00 in 0 W/m2
03:11 55.6 °F 53.6 °F 29.78 in Calm   1.0 mph 93 % 0.00 in 0 W/m2
03:16 55.4 °F 53.4 °F 29.78 in Calm   2.0 mph 93 % 0.00 in 0 W/m2
03:21 55.4 °F 53.4 °F 29.78 in Calm   2.0 mph 93 % 0.00 in 0 W/m2
03:26 55.2 °F 53.2 °F 29.78 in Calm     93 % 0.00 in 0 W/m2
03:31 55.0 °F 53.1 °F 29.78 in Calm     93 % 0.00 in 0 W/m2
03:36 55.0 °F 53.1 °F 29.78 in Calm     93 % 0.00 in 0 W/m2
03:41 54.9 °F 52.9 °F 29.77 in Calm     93 % 0.00 in 0 W/m2
03:46 54.9 °F 53.2 °F 29.77 in Calm   2.0 mph 94 % 0.00 in 0 W/m2
03:51 54.9 °F 53.2 °F 29.77 in Calm   2.0 mph 94 % 0.00 in 0 W/m2
03:56 54.9 °F 53.2 °F 29.76 in Calm   2.0 mph 94 % 0.00 in 0 W/m2
04:01 54.9 °F 53.2 °F 29.76 in SE 1.0 mph 4.0 mph 94 % 0.00 in 0 W/m2
04:06 54.9 °F 53.2 °F 29.76 in SE 1.0 mph 5.0 mph 94 % 0.00 in 0 W/m2
04:11 54.9 °F 53.2 °F 29.75 in SE 1.0 mph 5.0 mph 94 % 0.00 in 0 W/m2
04:16 54.9 °F 53.2 °F 29.75 in SE 2.0 mph 6.0 mph 94 % 0.00 in 0 W/m2
04:21 54.7 °F 53.0 °F 29.75 in SE 1.0 mph 6.0 mph 94 % 0.00 in 0 W/m2
04:26 54.7 °F 53.0 °F 29.75 in SE 1.0 mph 4.0 mph 94 % 0.00 in 0 W/m2
04:31 54.7 °F 53.0 °F 29.74 in SE 1.0 mph 4.0 mph 94 % 0.00 in 0 W/m2
04:36 54.7 °F 53.0 °F 29.74 in SE 1.0 mph 4.0 mph 94 % 0.00 in 0 W/m2
04:41 54.5 °F 52.8 °F 29.74 in Calm   2.0 mph 94 % 0.00 in 0 W/m2
04:46 54.3 °F 52.6 °F 29.74 in Calm   2.0 mph 94 % 0.00 in 0 W/m2
04:51 54.1 °F 52.5 °F 29.74 in Calm     94 % 0.00 in 0 W/m2
04:56 54.0 °F 52.3 °F 29.74 in Calm     94 % 0.00 in 0 W/m2
05:01 53.8 °F 52.1 °F 29.74 in Calm     94 % 0.00 in 0 W/m2
05:06 53.8 °F 52.1 °F 29.74 in Calm     94 % 0.00 in 5 W/m2
05:11 53.8 °F 52.4 °F 29.73 in Calm     95 % 0.00 in 7 W/m2
05:16 53.8 °F 52.4 °F 29.73 in Calm     95 % 0.00 in 9 W/m2
05:21 54.0 °F 52.6 °F 29.73 in Calm   1.0 mph 95 % 0.00 in 14 W/m2
05:26 54.0 °F 52.6 °F 29.73 in Calm   1.0 mph 95 % 0.00 in 18 W/m2
05:31 54.1 °F 52.7 °F 29.73 in Calm   1.0 mph 95 % 0.00 in 18 W/m2
05:36 54.3 °F 53.2 °F 29.73 in Calm   1.0 mph 96 % 0.00 in 19 W/m2
05:41 54.3 °F 52.9 °F 29.73 in Calm   2.0 mph 95 % 0.00 in 26 W/m2
05:46 54.5 °F 53.1 °F 29.72 in Calm   2.0 mph 95 % 0.00 in 33 W/m2
05:51 54.7 °F 53.6 °F 29.72 in Calm   4.0 mph 96 % 0.00 in 37 W/m2
05:56 54.7 °F 53.3 °F 29.72 in SE 1.0 mph 5.0 mph 95 % 0.00 in 33 W/m2
06:01 54.7 °F 53.3 °F 29.72 in Calm   5.0 mph 95 % 0.00 in 32 W/m2
06:06 54.7 °F 53.3 °F 29.72 in Calm   4.0 mph 95 % 0.00 in 30 W/m2
06:11 54.7 °F 53.3 °F 29.71 in Calm   4.0 mph 95 % 0.00 in 28 W/m2
06:16 54.9 °F 53.7 °F 29.71 in Calm   4.0 mph 96 % 0.00 in 30 W/m2
06:21 55.0 °F 53.9 °F 29.71 in Calm   1.0 mph 96 % 0.00 in 35 W/m2
06:23 55.0 °F 53.9 °F 29.71 in Calm   2.0 mph 96 % 0.00 in 37 W/m2
06:28 55.2 °F 54.1 °F 29.71 in Calm   4.0 mph 96 % 0.00 in 49 W/m2
06:33 55.2 °F 54.1 °F 29.71 in SSW 1.0 mph 5.0 mph 96 % 0.00 in 49 W/m2
06:38 55.4 °F 54.3 °F 29.71 in SSW 1.0 mph 5.0 mph 96 % 0.00 in 47 W/m2
06:43 55.6 °F 54.5 °F 29.71 in Calm   1.0 mph 96 % 0.00 in 39 W/m2
06:48 55.8 °F 54.6 °F 29.70 in Calm   1.0 mph 96 % 0.00 in 37 W/m2
06:53 55.8 °F 54.3 °F 29.70 in Calm   1.0 mph 95 % 0.00 in 44 W/m2
06:58 55.9 °F 54.5 °F 29.70 in Calm   4.0 mph 95 % 0.00 in 51 W/m2
07:03 56.1 °F 55.0 °F 29.70 in Calm   4.0 mph 96 % 0.00 in 51 W/m2
07:08 56.3 °F 55.2 °F 29.70 in South 1.0 mph 5.0 mph 96 % 0.00 in 37 W/m2
07:13 56.5 °F 55.1 °F 29.70 in South 2.0 mph 5.0 mph 95 % 0.00 in 33 W/m2
07:18 56.7 °F 55.2 °F 29.69 in SSE 3.0 mph 7.0 mph 95 % 0.00 in 40 W/m2
07:23 56.8 °F 55.4 °F 29.69 in SE 3.0 mph 7.0 mph 95 % 0.00 in 46 W/m2
07:28 56.8 °F 55.4 °F 29.69 in SSE 3.0 mph 6.0 mph 95 % 0.00 in 42 W/m2
07:33 56.8 °F 55.4 °F 29.69 in SE 3.0 mph 6.0 mph 95 % 0.00 in 42 W/m2
07:38 57.0 °F 55.6 °F 29.68 in SE 3.0 mph 7.0 mph 95 % 0.00 in 42 W/m2
07:43 57.0 °F 55.6 °F 29.68 in SE 4.0 mph 7.0 mph 95 % 0.00 in 39 W/m2
07:48 57.0 °F 55.6 °F 29.68 in SE 4.0 mph 7.0 mph 95 % 0.00 in 42 W/m2
07:53 57.0 °F 55.6 °F 29.68 in SE 4.0 mph 7.0 mph 95 % 0.00 in 58 W/m2
07:58 57.4 °F 56.0 °F 29.68 in SE 4.0 mph 8.0 mph 95 % 0.00 in 49 W/m2
08:03 57.6 °F 56.1 °F 29.68 in SSE 5.0 mph 8.0 mph 95 % 0.00 in 49 W/m2
08:08 57.6 °F 56.1 °F 29.67 in SSE 5.0 mph 8.0 mph 95 % 0.00 in 56 W/m2
08:14 57.7 °F 56.3 °F 29.67 in SSE 5.0 mph 8.0 mph 95 % 0.00 in 67 W/m2
08:19 57.7 °F 56.3 °F 29.67 in SE 6.0 mph 10.0 mph 95 % 0.00 in 79 W/m2
08:24 57.9 °F 56.5 °F 29.67 in SE 7.0 mph 10.0 mph 95 % 0.00 in 93 W/m2
08:29 57.9 °F 56.5 °F 29.67 in SE 6.0 mph 10.0 mph 95 % 0.01 in 102 W/m2
08:34 57.9 °F 56.5 °F 29.66 in SE 6.0 mph 9.0 mph 95 % 0.01 in 116 W/m2
08:39 58.1 °F 56.7 °F 29.66 in SE 5.0 mph 9.0 mph 95 % 0.01 in 125 W/m2
08:44 58.3 °F 56.9 °F 29.66 in SE 6.0 mph 9.0 mph 95 % 0.01 in 146 W/m2
08:49 58.6 °F 57.2 °F 29.65 in SSE 5.0 mph 10.0 mph 95 % 0.01 in 195 W/m2
08:54 58.8 °F 57.4 °F 29.65 in SSE 5.0 mph 10.0 mph 95 % 0.01 in 158 W/m2
08:59 59.2 °F 57.7 °F 29.65 in SSE 6.0 mph 10.0 mph 95 % 0.01 in 127 W/m2
09:04 59.4 °F 57.9 °F 29.65 in SSE 8.0 mph 12.0 mph 95 % 0.01 in 132 W/m2
09:09 59.5 °F 58.1 °F 29.65 in SSE 7.0 mph 12.0 mph 95 % 0.01 in 137 W/m2
09:14 59.5 °F 58.1 °F 29.64 in South 7.0 mph 15.0 mph 95 % 0.01 in 148 W/m2
09:19 59.7 °F 58.3 °F 29.64 in SSE 7.0 mph 15.0 mph 95 % 0.01 in 165 W/m2
09:24 60.1 °F 58.3 °F 29.64 in SSE 7.0 mph 16.0 mph 94 % 0.01 in 120 W/m2
09:29 60.1 °F 58.3 °F 29.64 in South 8.0 mph 16.0 mph 94 % 0.00 in 104 W/m2
09:34 60.3 °F 58.5 °F 29.64 in SSE 7.0 mph 15.0 mph 94 % 0.00 in 102 W/m2
09:39 60.3 °F 58.2 °F 29.63 in SSE 8.0 mph 16.0 mph 93 % 0.00 in 105 W/m2
09:44 60.3 °F 58.2 °F 29.64 in SSE 9.0 mph 19.0 mph 93 % 0.01 in 97 W/m2
09:49 60.3 °F 58.2 °F 29.63 in South 9.0 mph 19.0 mph 93 % 0.01 in 90 W/m2
09:54 60.3 °F 58.2 °F 29.63 in South 9.0 mph 16.0 mph 93 % 0.02 in 90 W/m2
09:59 60.3 °F 58.2 °F 29.63 in South 8.0 mph 16.0 mph 93 % 0.02 in 105 W/m2
10:04 60.3 °F 58.5 °F 29.63 in South 7.0 mph 14.0 mph 94 % 0.02 in 77 W/m2
10:09 60.3 °F 58.5 °F 29.63 in South 7.0 mph 14.0 mph 94 % 0.02 in 97 W/m2
10:15 60.3 °F 58.5 °F 29.62 in South 6.0 mph 14.0 mph 94 % 0.03 in 118 W/m2
10:20 60.4 °F 58.7 °F 29.62 in South 5.0 mph 10.0 mph 94 % 0.04 in 121 W/m2
10:25 60.4 °F 58.7 °F 29.62 in South 6.0 mph 10.0 mph 94 % 0.04 in 93 W/m2
10:30 60.4 °F 58.7 °F 29.62 in SSE 7.0 mph 16.0 mph 94 % 0.05 in 74 W/m2
10:35 60.3 °F 58.8 °F 29.61 in South 7.0 mph 16.0 mph 95 % 0.06 in 88 W/m2
10:40 60.3 °F 58.8 °F 29.61 in South 7.0 mph 18.0 mph 95 % 0.06 in 104 W/m2
10:45 60.3 °F 58.8 °F 29.61 in South 7.0 mph 18.0 mph 95 % 0.06 in 67 W/m2
10:50 60.3 °F 58.8 °F 29.61 in South 6.0 mph 13.0 mph 95 % 0.06 in 58 W/m2
10:55 60.3 °F 58.8 °F 29.61 in South 7.0 mph 13.0 mph 95 % 0.06 in 98 W/m2
11:00 60.3 °F 58.8 °F 29.60 in South 7.0 mph 13.0 mph 95 % 0.06 in 120 W/m2
11:05 60.3 °F 58.8 °F 29.60 in South 6.0 mph 12.0 mph 95 % 0.06 in 142 W/m2
11:10 60.4 °F 59.0 °F 29.60 in South 6.0 mph 12.0 mph 95 % 0.06 in 125 W/m2
11:15 60.4 °F 59.0 °F 29.60 in SSE 7.0 mph 13.0 mph 95 % 0.06 in 125 W/m2
11:20 60.4 °F 59.0 °F 29.59 in SSE 8.0 mph 15.0 mph 95 % 0.05 in 158 W/m2
11:25 60.6 °F 59.2 °F 29.59 in SSE 7.0 mph 15.0 mph 95 % 0.06 in 153 W/m2
11:30 60.8 °F 59.7 °F 29.59 in SSE 6.0 mph 14.0 mph 96 % 0.05 in 144 W/m2
11:35 61.0 °F 59.5 °F 29.59 in SSE 6.0 mph 11.0 mph 95 % 0.04 in 162 W/m2
11:40 61.2 °F 60.0 °F 29.59 in SSE 6.0 mph 11.0 mph 96 % 0.03 in 81 W/m2
11:45 61.2 °F 60.0 °F 29.59 in SSE 6.0 mph 10.0 mph 96 % 0.03 in 72 W/m2
11:50 61.2 °F 60.0 °F 29.59 in South 7.0 mph 13.0 mph 96 % 0.03 in 155 W/m2
11:55 61.3 °F 60.2 °F 29.58 in SSE 6.0 mph 13.0 mph 96 % 0.03 in 158 W/m2
12:00 61.5 °F 60.4 °F 29.58 in SSE 6.0 mph 10.0 mph 96 % 0.02 in 188 W/m2
12:05 61.9 °F 60.7 °F 29.58 in SSE 6.0 mph 10.0 mph 96 % 0.02 in 214 W/m2
12:10 62.1 °F 60.9 °F 29.58 in SSE 6.0 mph 11.0 mph 96 % 0.02 in 271 W/m2
12:15 62.2 °F 61.1 °F 29.58 in South 6.0 mph 11.0 mph 96 % 0.02 in 311 W/m2
12:20 62.6 °F 61.4 °F 29.58 in South 6.0 mph 10.0 mph 96 % 0.02 in 272 W/m2
12:25 62.8 °F 61.3 °F 29.58 in SSW 7.0 mph 14.0 mph 95 % 0.01 in 306 W/m2
12:30 63.0 °F 61.5 °F 29.57 in South 7.0 mph 14.0 mph 95 % 0.01 in 302 W/m2
12:35 63.3 °F 62.2 °F 29.57 in South 6.0 mph 12.0 mph 96 % 0.01 in 373 W/m2
12:40 63.5 °F 62.0 °F 29.57 in South 6.0 mph 12.0 mph 95 % 0.01 in 420 W/m2
12:41 63.7 °F 62.2 °F 29.57 in South 7.0 mph 15.0 mph 95 % 0.01 in 420 W/m2
12:46 63.9 °F 62.4 °F 29.57 in South 9.0 mph 15.0 mph 95 % 0.01 in 265 W/m2
12:51 64.0 °F 62.6 °F 29.57 in South 10.0 mph 16.0 mph 95 % 0.00 in 281 W/m2
12:56 63.9 °F 62.1 °F 29.57 in SSW 10.0 mph 22.0 mph 94 % 0.00 in 436 W/m2
13:01 64.0 °F 62.3 °F 29.56 in SSW 11.0 mph 22.0 mph 94 % 0.00 in 357 W/m2
13:06 64.2 °F 62.5 °F 29.56 in SSW 11.0 mph 24.0 mph 94 % 0.00 in 301 W/m2
13:11 64.6 °F 62.5 °F 29.56 in SSW 11.0 mph 24.0 mph 93 % 0.00 in 350 W/m2
13:16 64.6 °F 62.2 °F 29.56 in South 11.0 mph 20.0 mph 92 % 0.00 in 264 W/m2
13:21 64.9 °F 62.2 °F 29.56 in South 12.0 mph 21.0 mph 91 % 0.00 in 278 W/m2
13:26 64.9 °F 62.2 °F 29.56 in South 11.0 mph 22.0 mph 91 % 0.00 in 334 W/m2
13:31 65.1 °F 62.4 °F 29.56 in SSW 11.0 mph 22.0 mph 91 % 0.00 in 425 W/m2
13:36 65.5 °F 62.5 °F 29.55 in SSW 11.0 mph 20.0 mph 90 % 0.00 in 316 W/m2
13:41 65.8 °F 62.8 °F 29.55 in SSW 11.0 mph 23.0 mph 90 % 0.00 in 374 W/m2
13:46 66.4 °F 63.4 °F 29.55 in SSW 11.0 mph 23.0 mph 90 % 0.00 in 454 W/m2
13:51 66.7 °F 63.4 °F 29.55 in SSW 11.0 mph 22.0 mph 89 % 0.00 in 471 W/m2
13:56 67.3 °F 63.6 °F 29.54 in SSW 10.0 mph 22.0 mph 88 % 0.00 in 557 W/m2
14:01 67.6 °F 63.6 °F 29.54 in South 11.0 mph 22.0 mph 87 % 0.00 in 557 W/m2
14:06 68.4 °F 64.3 °F 29.54 in South 11.0 mph 22.0 mph 87 % 0.00 in 962 W/m2
14:11 68.9 °F 64.2 °F 29.54 in SSW 11.0 mph 23.0 mph 85 % 0.00 in 916 W/m2
14:16 69.1 °F 64.4 °F 29.54 in SSW 13.0 mph 23.0 mph 85 % 0.00 in 977 W/m2
14:21 69.4 °F 65.1 °F 29.54 in SSW 11.0 mph 22.0 mph 86 % 0.00 in 1002 W/m2
14:26 70.0 °F 64.9 °F 29.54 in SSW 10.0 mph 23.0 mph 84 % 0.00 in 942 W/m2
14:31 70.2 °F 65.1 °F 29.53 in SSW 11.0 mph 23.0 mph 84 % 0.00 in 951 W/m2
14:36 70.3 °F 64.9 °F 29.53 in SSW 10.0 mph 19.0 mph 83 % 0.00 in 990 W/m2
14:41 70.5 °F 65.1 °F 29.52 in SSW 10.0 mph 20.0 mph 83 % 0.00 in 976 W/m2
14:46 71.1 °F 64.9 °F 29.52 in SSW 12.0 mph 20.0 mph 81 % 0.00 in 911 W/m2
14:49 71.2 °F 65.1 °F 29.52 in SW 11.0 mph 20.0 mph 81 % 0.00 in 974 W/m2
14:54 71.4 °F 64.6 °F 29.52 in SW 13.0 mph 22.0 mph 79 % 0.00 in 923 W/m2
15:00 71.1 °F 64.6 °F 29.51 in SW 13.0 mph 23.0 mph 80 % 0.00 in 364 W/m2
15:05 71.2 °F 65.1 °F 29.51 in SSW 11.0 mph 23.0 mph 81 % 0.00 in 891 W/m2
15:10 71.4 °F 64.6 °F 29.51 in SW 12.0 mph 25.0 mph 79 % 0.00 in 325 W/m2
15:15 71.4 °F 64.2 °F 29.52 in SW 12.0 mph 25.0 mph 78 % 0.00 in 207 W/m2
15:20 71.1 °F 64.2 °F 29.51 in SW 11.0 mph 21.0 mph 79 % 0.00 in 253 W/m2
15:25 70.9 °F 64.8 °F 29.51 in SW 10.0 mph 16.0 mph 81 % 0.00 in 285 W/m2
15:30 70.5 °F 64.0 °F 29.51 in SSW 9.0 mph 16.0 mph 80 % 0.00 in 142 W/m2
15:35 70.2 °F 63.7 °F 29.50 in SSW 10.0 mph 16.0 mph 80 % 0.00 in 111 W/m2
15:40 70.0 °F 63.9 °F 29.51 in SSW 12.0 mph 22.0 mph 81 % 0.00 in 139 W/m2
15:45 70.0 °F 64.6 °F 29.50 in SW 12.0 mph 22.0 mph 83 % 0.00 in 218 W/m2
15:50 70.2 °F 65.4 °F 29.50 in SW 11.0 mph 22.0 mph 85 % 0.00 in 881 W/m2
15:55 70.7 °F 65.3 °F 29.50 in SW 11.0 mph 18.0 mph 83 % 0.00 in 875 W/m2
16:00 71.2 °F 65.1 °F 29.50 in SW 11.0 mph 18.0 mph 81 % 0.00 in 163 W/m2
16:05 71.2 °F 64.8 °F 29.50 in SW 10.0 mph 16.0 mph 80 % 0.00 in 107 W/m2
16:10 70.9 °F 64.4 °F 29.51 in WSW 11.0 mph 22.0 mph 80 % 0.00 in 823 W/m2
16:15 70.2 °F 64.1 °F 29.51 in West 13.0 mph 23.0 mph 81 % 0.00 in 744 W/m2
16:20 70.0 °F 63.2 °F 29.52 in West 14.0 mph 23.0 mph 79 % 0.00 in 800 W/m2
16:25 70.0 °F 62.4 °F 29.51 in West 14.0 mph 23.0 mph 77 % 0.00 in 742 W/m2
16:30 69.6 °F 61.3 °F 29.51 in West 15.0 mph 28.0 mph 75 % 0.00 in 710 W/m2
16:35 69.4 °F 61.2 °F 29.52 in West 15.0 mph 28.0 mph 75 % 0.00 in 719 W/m2
16:40 69.3 °F 60.2 °F 29.52 in WNW 14.0 mph 31.0 mph 73 % 0.00 in 439 W/m2
16:45 69.1 °F 59.7 °F 29.52 in WNW 15.0 mph 31.0 mph 72 % 0.00 in 415 W/m2
16:50 68.5 °F 58.8 °F 29.52 in West 14.0 mph 26.0 mph 71 % 0.00 in 536 W/m2
16:55 68.0 °F 58.6 °F 29.52 in West 13.0 mph 26.0 mph 72 % 0.00 in 682 W/m2
17:00 68.4 °F 59.0 °F 29.53 in West 12.0 mph 23.0 mph 72 % 0.00 in 624 W/m2
17:05 68.7 °F 58.9 °F 29.52 in WNW 11.0 mph 24.0 mph 71 % 0.00 in 578 W/m2
17:10 68.4 °F 57.4 °F 29.52 in WNW 13.0 mph 25.0 mph 68 % 0.00 in 272 W/m2
17:15 67.8 °F 57.7 °F 29.53 in WNW 12.0 mph 25.0 mph 70 % 0.00 in 343 W/m2
17:20 67.6 °F 56.7 °F 29.53 in WNW 11.0 mph 23.0 mph 68 % 0.00 in 225 W/m2
17:25 67.1 °F 56.6 °F 29.53 in WNW 11.0 mph 23.0 mph 69 % 0.00 in 288 W/m2
17:31 67.3 °F 56.8 °F 29.53 in WNW 10.0 mph 24.0 mph 69 % 0.00 in 622 W/m2
17:36 67.1 °F 56.2 °F 29.53 in West 12.0 mph 24.0 mph 68 % 0.00 in 464 W/m2
17:41 67.3 °F 56.8 °F 29.53 in West 13.0 mph 23.0 mph 69 % 0.00 in 396 W/m2
17:46 67.3 °F 56.8 °F 29.53 in West 11.0 mph 20.0 mph 69 % 0.00 in 482 W/m2
17:51 67.3 °F 56.8 °F 29.53 in West 12.0 mph 22.0 mph 69 % 0.00 in 471 W/m2
17:56 67.5 °F 57.3 °F 29.53 in West 12.0 mph 22.0 mph 70 % 0.00 in 434 W/m2
18:01 67.5 °F 56.9 °F 29.53 in West 12.0 mph 20.0 mph 69 % 0.00 in 348 W/m2
18:06 67.1 °F 56.6 °F 29.53 in West 12.0 mph 20.0 mph 69 % 0.00 in 113 W/m2
18:11 66.9 °F 57.2 °F 29.53 in West 10.0 mph 20.0 mph 71 % 0.00 in 429 W/m2
18:16 67.3 °F 57.2 °F 29.54 in West 9.0 mph 15.0 mph 70 % 0.00 in 323 W/m2
18:21 67.5 °F 57.3 °F 29.54 in West 8.0 mph 18.0 mph 70 % 0.00 in 204 W/m2
18:26 67.3 °F 56.8 °F 29.54 in West 9.0 mph 18.0 mph 69 % 0.00 in 218 W/m2
18:31 66.9 °F 56.8 °F 29.53 in West 9.0 mph 18.0 mph 70 % 0.00 in 338 W/m2
18:36 66.9 °F 57.2 °F 29.54 in West 8.0 mph 16.0 mph 71 % 0.00 in 236 W/m2
18:41 66.9 °F 56.8 °F 29.53 in West 8.0 mph 16.0 mph 70 % 0.00 in 373 W/m2
18:46 66.9 °F 56.8 °F 29.54 in West 9.0 mph 16.0 mph 70 % 0.00 in 327 W/m2
18:51 66.9 °F 56.4 °F 29.53 in West 9.0 mph 15.0 mph 69 % 0.00 in 202 W/m2
18:56 66.7 °F 56.6 °F 29.53 in West 9.0 mph 13.0 mph 70 % 0.00 in 213 W/m2
19:01 66.6 °F 56.5 °F 29.53 in West 7.0 mph 13.0 mph 70 % 0.00 in 181 W/m2
19:06 66.4 °F 55.9 °F 29.53 in WNW 7.0 mph 13.0 mph 69 % 0.00 in 163 W/m2
19:08 66.0 °F 55.6 °F 29.53 in WNW 8.0 mph 19.0 mph 69 % 0.00 in 158 W/m2
19:13 65.8 °F 55.4 °F 29.53 in WNW 9.0 mph 19.0 mph 69 % 0.00 in 125 W/m2
19:18 65.7 °F 54.8 °F 29.53 in WNW 7.0 mph 14.0 mph 68 % 0.00 in 83 W/m2
19:23 65.5 °F 54.6 °F 29.54 in WNW 7.0 mph 12.0 mph 68 % 0.00 in 65 W/m2
19:28 65.1 °F 54.3 °F 29.54 in WNW 7.0 mph 13.0 mph 68 % 0.00 in 109 W/m2
19:33 65.1 °F 54.3 °F 29.54 in WNW 7.0 mph 13.0 mph 68 % 0.00 in 107 W/m2
19:38 64.9 °F 53.3 °F 29.54 in WNW 7.0 mph 13.0 mph 66 % 0.00 in 144 W/m2
19:44 65.3 °F 53.6 °F 29.53 in WNW 8.0 mph 14.0 mph 66 % 0.00 in 213 W/m2
19:49 65.7 °F 53.6 °F 29.54 in West 7.0 mph 14.0 mph 65 % 0.00 in 141 W/m2
19:54 65.7 °F 52.7 °F 29.54 in West 8.0 mph 14.0 mph 63 % 0.00 in 107 W/m2
19:59 65.5 °F 52.5 °F 29.54 in WNW 9.0 mph 15.0 mph 63 % 0.00 in 77 W/m2
20:04 65.1 °F 52.6 °F 29.54 in WNW 8.0 mph 15.0 mph 64 % 0.00 in 30 W/m2
20:09 64.6 °F 52.5 °F 29.54 in WNW 7.0 mph 14.0 mph 65 % 0.00 in 23 W/m2
20:14 64.0 °F 52.4 °F 29.54 in West 6.0 mph 14.0 mph 66 % 0.00 in 23 W/m2
20:19 63.7 °F 52.9 °F 29.54 in West 5.0 mph 10.0 mph 68 % 0.00 in 25 W/m2
20:24 63.3 °F 53.0 °F 29.54 in West 5.0 mph 10.0 mph 69 % 0.00 in 19 W/m2
20:29 63.0 °F 53.0 °F 29.54 in West 4.0 mph 10.0 mph 70 % 0.00 in 18 W/m2
20:34 62.6 °F 53.1 °F 29.55 in West 4.0 mph 9.0 mph 71 % 0.00 in 16 W/m2
20:39 62.2 °F 52.7 °F 29.55 in West 5.0 mph 9.0 mph 71 % 0.00 in 14 W/m2
20:44 61.9 °F 52.8 °F 29.55 in West 5.0 mph 11.0 mph 72 % 0.00 in 12 W/m2
20:49 61.7 °F 52.6 °F 29.55 in West 5.0 mph 11.0 mph 72 % 0.00 in 11 W/m2
20:54 61.5 °F 52.8 °F 29.55 in West 4.0 mph 7.0 mph 73 % 0.00 in 9 W/m2
20:59 61.2 °F 52.8 °F 29.55 in WSW 4.0 mph 8.0 mph 74 % 0.00 in 5 W/m2
21:04 61.0 °F 53.0 °F 29.55 in WSW 6.0 mph 9.0 mph 75 % 0.00 in 5 W/m2
21:09 60.8 °F 52.8 °F 29.55 in WSW 5.0 mph 9.0 mph 75 % 0.00 in 0 W/m2
21:14 60.8 °F 52.8 °F 29.56 in WSW 4.0 mph 9.0 mph 75 % 0.00 in 0 W/m2
21:19 60.8 °F 52.8 °F 29.56 in SW 5.0 mph 11.0 mph 75 % 0.00 in 0 W/m2
21:24 60.8 °F 52.8 °F 29.56 in WSW 6.0 mph 12.0 mph 75 % 0.00 in 0 W/m2
21:29 60.8 °F 52.5 °F 29.56 in WSW 8.0 mph 12.0 mph 74 % 0.00 in 0 W/m2
21:35 60.6 °F 52.3 °F 29.57 in WSW 8.0 mph 12.0 mph 74 % 0.00 in 0 W/m2
21:40 60.6 °F 52.3 °F 29.57 in WSW 6.0 mph 11.0 mph 74 % 0.00 in 0 W/m2
21:45 60.4 °F 52.1 °F 29.57 in WSW 5.0 mph 11.0 mph 74 % 0.00 in 0 W/m2
21:50 60.4 °F 52.1 °F 29.57 in WSW 6.0 mph 11.0 mph 74 % 0.00 in 0 W/m2
21:55 60.3 °F 51.9 °F 29.57 in WSW 6.0 mph 12.0 mph 74 % 0.00 in 0 W/m2
22:00 60.3 °F 51.9 °F 29.57 in WSW 8.0 mph 18.0 mph 74 % 0.00 in 0 W/m2
22:04 60.3 °F 51.9 °F 29.57 in WSW 10.0 mph 19.0 mph 74 % 0.00 in 0 W/m2
22:09 60.1 °F 51.8 °F 29.58 in WSW 9.0 mph 19.0 mph 74 % 0.00 in 0 W/m2
22:15 59.9 °F 52.0 °F 29.58 in WSW 7.0 mph 14.0 mph 75 % 0.00 in 0 W/m2
22:20 59.7 °F 51.8 °F 29.58 in WSW 8.0 mph 15.0 mph 75 % 0.00 in 0 W/m2
22:25 59.7 °F 52.1 °F 29.58 in WSW 8.0 mph 15.0 mph 76 % 0.00 in 0 W/m2
22:30 59.5 °F 52.0 °F 29.58 in WSW 7.0 mph 13.0 mph 76 % 0.00 in 0 W/m2
22:35 59.5 °F 52.0 °F 29.58 in WSW 7.0 mph 13.0 mph 76 % 0.00 in 0 W/m2
22:40 59.4 °F 52.1 °F 29.58 in SW 7.0 mph 12.0 mph 77 % 0.00 in 0 W/m2
22:45 59.4 °F 52.1 °F 29.59 in WSW 8.0 mph 20.0 mph 77 % 0.00 in 0 W/m2
22:50 59.4 °F 52.5 °F 29.59 in WSW 9.0 mph 22.0 mph 78 % 0.00 in 0 W/m2
22:55 59.5 °F 52.7 °F 29.59 in WSW 11.0 mph 22.0 mph 78 % 0.00 in 0 W/m2
23:00 59.5 °F 52.7 °F 29.60 in WSW 11.0 mph 21.0 mph 78 % 0.00 in 0 W/m2
23:05 59.0 °F 50.4 °F 29.61 in West 16.0 mph 31.0 mph 73 % 0.00 in 0 W/m2
23:10 57.6 °F 50.4 °F 29.61 in West 18.0 mph 31.0 mph 77 % 0.00 in 0 W/m2
23:15 56.3 °F 50.5 °F 29.61 in West 13.0 mph 28.0 mph 81 % 0.00 in 0 W/m2
23:20 55.6 °F 50.5 °F 29.61 in West 9.0 mph 21.0 mph 83 % 0.00 in 0 W/m2
23:25 55.2 °F 50.5 °F 29.60 in West 6.0 mph 14.0 mph 84 % 0.00 in 0 W/m2
23:30 55.0 °F 50.6 °F 29.60 in WSW 5.0 mph 10.0 mph 85 % 0.00 in 0 W/m2
23:35 54.9 °F 50.8 °F 29.60 in West 4.0 mph 10.0 mph 86 % 0.00 in 0 W/m2
23:40 54.7 °F 50.9 °F 29.60 in West 3.0 mph 8.0 mph 87 % 0.00 in 0 W/m2
23:45 54.5 °F 51.0 °F 29.60 in West 3.0 mph 8.0 mph 88 % 0.00 in 0 W/m2
23:50 54.3 °F 50.8 °F 29.60 in WSW 4.0 mph 9.0 mph 88 % 0.00 in 0 W/m2
23:55 54.3 °F 50.8 °F 29.60 in WSW 6.0 mph 11.0 mph 88 % 0.00 in 0 W/m2
Delerius-Weather
Compliments of Weather Underground - 2.25 mb

Data updates at regular intervals.